Laytonville Rancheria, California
Current Conditions -  °F | °C
As of 1:56 PM on Friday 24 Oct 2014 (Local Time) from KUKI Reporting Station
Clear Clear  
Wind Chill: 72°   Ceiling: Unl
Heat Index: 72°   Visibility: 10mi
Dew Point: 50°   Wind: 14mph
Humidity: 46%   Direction: 170°S
Pressure: 29.88"   Gusts: 23mph
Location:  39.6519°N, 123.451°W
Report Text: KUKI 242056Z AUTO 17012G20KT 10SM CLR 22/10 A2988 RMK AO2 SLP111 T02220100 58025
Loading
Personal Weather Stations






























Interactive Weather Map
Tropical Storm Tracking
New forecast layout! Learn more

10-Day Weather Forecast

Advertisements
Track Severe Weather on mobile